createdAt,value
2022-08-12T00:00:35.212Z,50.51
2022-08-12T00:03:20.768Z,52.35
2022-08-12T00:06:06.278Z,50.96
2022-08-12T00:08:51.260Z,51.85
2022-08-12T00:11:36.415Z,50.53
2022-08-12T00:14:21.513Z,50.83
2022-08-12T00:17:06.405Z,50.31
2022-08-12T00:19:51.586Z,52.37
2022-08-12T00:22:36.659Z,52.13
2022-08-12T00:26:01.224Z,51.07
2022-08-12T00:28:27.054Z,52.35
2022-08-12T00:31:11.867Z,52.76
2022-08-12T00:33:57.174Z,53.04
2022-08-12T00:36:50.291Z,52.27
2022-08-12T00:39:35.724Z,53.96
2022-08-12T00:42:11.177Z,54.05
2022-08-12T00:44:38.328Z,53.44
2022-08-12T00:47:04.952Z,54.08
2022-08-12T00:49:31.306Z,55.02
2022-08-12T00:52:07.178Z,56.23
2022-08-12T00:54:37.925Z,57.48
2022-08-12T00:57:05.160Z,56.11
2022-08-12T00:59:32.318Z,57.53
2022-08-12T01:02:10.675Z,57.17
2022-08-12T01:04:57.432Z,55.61
2022-08-12T01:07:42.492Z,55.26
2022-08-12T01:10:30.749Z,56.91
2022-08-12T01:13:07.281Z,56.34
2022-08-12T01:15:46.250Z,54.46
2022-08-12T01:18:15.388Z,53.91
2022-08-12T01:21:02.811Z,54.28
2022-08-12T01:23:48.557Z,56.32
2022-08-12T01:26:18.755Z,57.92
2022-08-12T01:28:45.610Z,56.18
2022-08-12T01:31:15.829Z,56.99
2022-08-12T01:33:50.485Z,58.52
2022-08-12T01:36:16.840Z,57.34
2022-08-12T01:38:43.787Z,57.62
2022-08-12T01:41:11.402Z,56.54
2022-08-12T01:43:37.878Z,57.93
2022-08-12T01:46:14.679Z,57.28
2022-08-12T01:48:47.113Z,57.73
2022-08-12T01:52:20.685Z,57.70
2022-08-12T01:54:18.717Z,57.36
2022-08-12T01:56:50.795Z,58.40
2022-08-12T01:59:38.450Z,57.96
2022-08-12T02:02:05.131Z,59.13
2022-08-12T02:04:57.402Z,58.43
2022-08-12T02:07:45.485Z,59.50
2022-08-12T02:10:50.314Z,57.83
2022-08-12T02:13:49.139Z,58.55
2022-08-12T02:16:10.059Z,58.75
2022-08-12T02:19:22.221Z,58.88
2022-08-12T02:21:52.212Z,58.38
2022-08-12T02:24:19.197Z,58.99
2022-08-12T02:26:46.803Z,57.71
2022-08-12T02:29:13.988Z,58.88
2022-08-12T02:31:41.639Z,59.53
2022-08-12T02:34:08.056Z,59.11
2022-08-12T02:36:37.580Z,58.65
2022-08-12T02:39:03.932Z,60.13
2022-08-12T02:41:30.289Z,60.30
2022-08-12T02:44:00.097Z,60.64
2022-08-12T02:46:30.917Z,60.95
2022-08-12T02:49:02.998Z,61.70
2022-08-12T02:51:30.119Z,60.48
2022-08-12T02:54:04.549Z,61.87
2022-08-12T02:56:32.899Z,61.37
2022-08-12T02:58:59.332Z,59.11
2022-08-12T03:01:33.853Z,62.39
2022-08-12T03:04:01.186Z,63.64
2022-08-12T03:06:28.531Z,61.12
2022-08-12T03:08:57.327Z,60.90
2022-08-12T03:11:42.304Z,60.18
2022-08-12T03:14:13.989Z,59.75
2022-08-12T03:16:40.454Z,61.30
2022-08-12T03:19:07.142Z,62.23
2022-08-12T03:21:58.011Z,62.45
2022-08-12T03:24:20.879Z,60.78
2022-08-12T03:26:47.435Z,61.97
2022-08-12T03:29:14.430Z,61.34
2022-08-12T03:31:42.037Z,61.02
2022-08-12T03:34:09.542Z,60.63
2022-08-12T03:36:36.494Z,61.13
2022-08-12T03:39:16.697Z,60.98
2022-08-12T03:41:54.784Z,61.78
2022-08-12T03:44:49.955Z,63.29
2022-08-12T03:47:38.066Z,62.44
2022-08-12T03:50:23.310Z,61.85
2022-08-12T03:53:08.391Z,62.56
2022-08-12T03:55:54.187Z,62.67
2022-08-12T03:58:39.390Z,62.67
2022-08-12T04:01:05.930Z,62.94
2022-08-12T04:03:53.787Z,63.57
2022-08-12T04:06:35.082Z,64.28
2022-08-12T04:09:02.266Z,63.54
2022-08-12T04:11:47.369Z,64.98
2022-08-12T04:14:17.382Z,62.89
2022-08-12T04:16:43.731Z,61.59
2022-08-12T04:19:10.100Z,63.39
2022-08-12T04:21:37.738Z,63.63
2022-08-12T04:24:09.327Z,62.19
2022-08-12T04:26:41.639Z,64.62
2022-08-12T04:29:10.701Z,63.50
2022-08-12T04:31:38.491Z,63.46
2022-08-12T04:34:07.373Z,61.99
2022-08-12T04:36:34.457Z,63.09
2022-08-12T04:39:00.834Z,63.81
2022-08-12T04:41:27.593Z,63.23
2022-08-12T04:44:02.216Z,64.74
2022-08-12T04:46:30.859Z,63.93
2022-08-12T04:49:02.697Z,64.63
2022-08-12T04:51:29.465Z,62.00
2022-08-12T04:53:55.858Z,62.19
2022-08-12T04:56:22.211Z,60.36
2022-08-12T04:58:52.582Z,63.80
2022-08-12T05:01:20.181Z,63.55
2022-08-12T05:03:48.244Z,60.42
2022-08-12T05:06:20.819Z,59.37
2022-08-12T05:08:54.268Z,59.70
2022-08-12T05:11:24.390Z,57.35
2022-08-12T05:13:51.259Z,56.10
2022-08-12T05:16:17.896Z,56.37
2022-08-12T05:18:53.578Z,54.40
2022-08-12T05:21:19.929Z,53.75
2022-08-12T05:23:46.293Z,54.00
2022-08-12T05:26:12.696Z,52.12
2022-08-12T05:28:39.104Z,52.01
2022-08-12T05:31:05.546Z,51.24
2022-08-12T05:33:39.939Z,50.62
2022-08-12T05:36:09.660Z,51.48
2022-08-12T05:38:54.622Z,50.27
2022-08-12T05:41:21.011Z,49.78
2022-08-12T05:43:48.049Z,48.13
2022-08-12T05:46:17.395Z,47.10
2022-08-12T05:48:43.831Z,46.39
2022-08-12T05:51:11.247Z,47.21
2022-08-12T05:53:40.814Z,47.99
2022-08-12T05:56:07.290Z,47.65
2022-08-12T05:58:34.818Z,45.29
2022-08-12T06:01:01.250Z,44.06
2022-08-12T06:03:47.658Z,44.15
2022-08-12T06:06:14.673Z,43.48
2022-08-12T06:08:48.525Z,44.43
2022-08-12T06:11:18.604Z,44.72
2022-08-12T06:13:53.965Z,44.81
2022-08-12T06:16:21.976Z,44.93
2022-08-12T06:18:48.626Z,43.90
2022-08-12T06:21:16.079Z,43.63
2022-08-12T06:23:42.992Z,43.69
2022-08-12T06:26:11.540Z,43.61
2022-08-12T06:28:41.245Z,43.85
2022-08-12T06:31:25.330Z,46.54
2022-08-12T06:34:00.258Z,46.05
2022-08-12T06:36:40.567Z,45.06
2022-08-12T06:39:15.122Z,43.82
2022-08-12T06:42:02.482Z,43.70
2022-08-12T06:44:46.927Z,45.31
2022-08-12T06:47:16.495Z,42.92
2022-08-12T06:49:43.984Z,43.21
2022-08-12T06:52:10.347Z,43.91
2022-08-12T06:54:36.955Z,44.19
2022-08-12T06:58:01.729Z,43.46
2022-08-12T06:59:50.980Z,42.63
2022-08-12T07:02:19.677Z,42.36
2022-08-12T07:04:47.335Z,42.79
2022-08-12T07:07:13.689Z,42.28
2022-08-12T07:10:05.371Z,41.44
2022-08-12T07:12:28.476Z,42.17
2022-08-12T07:14:55.254Z,41.78
2022-08-12T07:17:21.704Z,42.13
2022-08-12T07:19:49.981Z,40.70
2022-08-12T07:22:16.370Z,40.89
2022-08-12T07:24:42.801Z,40.67
2022-08-12T07:27:09.200Z,40.72
2022-08-12T07:29:58.388Z,41.10
2022-08-12T07:32:24.514Z,39.33
2022-08-12T07:34:55.836Z,40.13
2022-08-12T07:37:22.205Z,39.68
2022-08-12T07:39:50.657Z,39.79
2022-08-12T07:42:25.232Z,39.75
2022-08-12T07:44:53.040Z,40.02
2022-08-12T07:47:19.400Z,39.84
2022-08-12T07:50:04.480Z,39.82
2022-08-12T07:52:32.157Z,39.30
2022-08-12T07:54:59.531Z,40.12
2022-08-12T07:57:26.304Z,39.98
2022-08-12T07:59:52.825Z,39.47
2022-08-12T08:02:26.464Z,39.26
2022-08-12T08:04:56.071Z,39.59
2022-08-12T08:07:22.688Z,39.73
2022-08-12T08:09:49.066Z,39.53
2022-08-12T08:12:43.834Z,37.37
2022-08-12T08:15:11.094Z,38.08
2022-08-12T08:17:37.778Z,37.95
2022-08-12T08:20:05.655Z,37.81
2022-08-12T08:22:41.695Z,37.18
2022-08-12T08:25:34.958Z,36.07
2022-08-12T08:27:54.909Z,36.49
2022-08-12T08:30:21.281Z,36.67
2022-08-12T08:32:48.655Z,37.47
2022-08-12T08:35:15.048Z,35.27
2022-08-12T08:37:44.770Z,37.96
2022-08-12T08:40:30.978Z,36.63
2022-08-12T08:42:57.332Z,35.78
2022-08-12T08:45:23.768Z,34.33
2022-08-12T08:47:51.612Z,37.29
2022-08-12T08:50:18.051Z,36.58
2022-08-12T08:52:44.585Z,36.62
2022-08-12T08:55:11.370Z,35.63
2022-08-12T08:57:42.812Z,35.09
2022-08-12T09:00:17.913Z,35.07
2022-08-12T09:02:49.407Z,34.35
2022-08-12T09:08:26.611Z,34.87
2022-08-12T09:11:13.360Z,34.35
2022-08-12T09:14:10.818Z,34.71
2022-08-12T09:16:42.805Z,33.54
2022-08-12T09:21:57.445Z,34.09
2022-08-12T09:24:27.700Z,34.99
2022-08-12T09:26:54.333Z,33.40
2022-08-12T09:30:11.489Z,33.57
2022-08-12T09:32:09.457Z,33.85
2022-08-12T09:34:42.322Z,32.66
2022-08-12T09:37:18.616Z,32.27
2022-08-12T09:40:06.398Z,31.46
2022-08-12T09:43:10.993Z,32.86
2022-08-12T09:46:19.321Z,32.92
2022-08-12T09:48:24.539Z,34.30
2022-08-12T09:50:51.934Z,33.41
2022-08-12T09:53:36.036Z,33.16
2022-08-12T09:56:56.837Z,32.67
2022-08-12T09:59:00.110Z,32.07
2022-08-12T10:01:34.296Z,30.88
2022-08-12T10:04:05.795Z,32.61
2022-08-12T10:06:36.710Z,32.54
2022-08-12T10:09:15.089Z,31.36
2022-08-12T10:12:11.511Z,31.70
2022-08-12T10:14:40.706Z,31.21
2022-08-12T10:17:22.478Z,32.34
2022-08-12T10:19:52.548Z,31.92
2022-08-12T10:22:38.815Z,30.16
2022-08-12T10:26:36.009Z,31.57
2022-08-12T10:28:30.449Z,31.96
2022-08-12T10:30:58.939Z,30.73
2022-08-12T10:33:31.614Z,31.34
2022-08-12T10:35:59.937Z,30.89
2022-08-12T10:38:33.654Z,30.49
2022-08-12T10:41:57.775Z,31.20
2022-08-12T10:44:18.483Z,29.47
2022-08-12T10:46:49.051Z,29.09
2022-08-12T10:50:05.623Z,29.64
2022-08-12T10:52:33.434Z,28.59
2022-08-12T10:54:51.198Z,28.73
2022-08-12T10:57:18.635Z,29.84
2022-08-12T11:00:33.718Z,31.15
2022-08-12T11:04:26.123Z,29.95
2022-08-12T11:07:02.399Z,30.85
2022-08-12T11:08:39.015Z,30.06
2022-08-12T11:11:13.320Z,30.44
2022-08-12T11:13:46.672Z,29.89
2022-08-12T11:16:22.271Z,30.19
2022-08-12T11:18:55.038Z,29.64
2022-08-12T11:21:22.258Z,29.74
2022-08-12T11:23:53.712Z,29.36
2022-08-12T11:26:21.583Z,29.44
2022-08-12T11:28:59.113Z,29.37
2022-08-12T11:31:40.945Z,29.35
2022-08-12T11:34:53.396Z,30.28
2022-08-12T11:37:05.755Z,28.74
2022-08-12T11:42:33.852Z,28.23
2022-08-12T11:45:00.214Z,28.22
2022-08-12T11:47:26.575Z,31.29
2022-08-12T11:49:52.989Z,28.30
2022-08-12T11:52:55.290Z,28.89
2022-08-12T11:55:05.954Z,30.63
2022-08-12T11:58:17.227Z,29.40
2022-08-12T12:03:06.490Z,30.16
2022-08-12T12:05:39.702Z,28.68
2022-08-12T12:08:38.197Z,28.72
2022-08-12T12:10:54.842Z,30.86
2022-08-12T12:13:23.287Z,28.60
2022-08-12T12:16:08.920Z,27.63
2022-08-12T12:18:35.276Z,30.15
2022-08-12T12:21:05.480Z,28.91
2022-08-12T12:23:36.352Z,29.50
2022-08-12T12:26:08.472Z,29.05
2022-08-12T12:28:37.742Z,28.59
2022-08-12T12:31:04.789Z,29.07
2022-08-12T12:33:57.448Z,29.04
2022-08-12T12:36:30.034Z,28.60
2022-08-12T12:38:57.338Z,29.47
2022-08-12T12:42:41.922Z,29.27
2022-08-12T12:44:13.331Z,28.11
2022-08-12T12:46:51.969Z,28.65
2022-08-12T12:49:21.222Z,28.70
2022-08-12T12:52:18.332Z,29.41
2022-08-12T12:54:52.366Z,30.46
2022-08-12T12:57:35.830Z,27.28
2022-08-12T13:00:18.391Z,27.56
2022-08-12T13:02:52.919Z,28.62
2022-08-12T13:05:20.539Z,28.34
2022-08-12T13:08:01.147Z,28.52
2022-08-12T13:10:30.688Z,30.23
2022-08-12T13:12:58.608Z,28.41
2022-08-12T13:15:45.181Z,28.54
2022-08-12T13:18:11.460Z,28.71
2022-08-12T13:20:43.238Z,28.22
2022-08-12T13:23:36.338Z,28.86
2022-08-12T13:25:57.218Z,27.55
2022-08-12T13:28:24.314Z,27.84
2022-08-12T13:30:57.500Z,26.62
2022-08-12T13:33:28.415Z,27.41
2022-08-12T13:36:07.159Z,26.83
2022-08-12T13:38:38.880Z,27.49
2022-08-12T13:41:11.165Z,27.59
2022-08-12T13:43:40.865Z,27.24
2022-08-12T13:46:12.209Z,26.98
2022-08-12T13:48:39.082Z,27.05
2022-08-12T13:51:11.284Z,26.40
2022-08-12T13:53:40.190Z,26.49
2022-08-12T13:56:34.444Z,27.07
2022-08-12T13:59:01.549Z,26.80
2022-08-12T14:01:28.110Z,25.88
2022-08-12T14:03:54.750Z,26.32
2022-08-12T14:06:21.197Z,26.77
2022-08-12T14:08:50.751Z,28.00
2022-08-12T14:11:18.259Z,26.78
2022-08-12T14:14:04.235Z,27.39
2022-08-12T14:16:37.597Z,27.71
2022-08-12T14:19:22.176Z,28.46
2022-08-12T14:21:59.331Z,28.53
2022-08-12T14:24:30.810Z,27.66
2022-08-12T14:26:57.336Z,26.57
2022-08-12T14:29:56.323Z,27.06
2022-08-12T14:32:17.544Z,27.17
2022-08-12T14:34:44.301Z,27.65
2022-08-12T14:37:12.952Z,27.02
2022-08-12T14:39:57.193Z,28.22
2022-08-12T14:42:23.700Z,27.27
2022-08-12T14:44:59.595Z,27.50
2022-08-12T14:47:29.280Z,28.05
2022-08-12T14:50:37.538Z,27.82
2022-08-12T14:55:36.158Z,28.99
2022-08-12T14:58:25.366Z,28.76
2022-08-12T15:01:27.257Z,29.09
2022-08-12T15:04:01.556Z,28.65
2022-08-12T15:06:39.217Z,28.96
2022-08-12T15:09:12.168Z,29.14
2022-08-12T15:11:55.621Z,28.60
2022-08-12T15:14:26.600Z,28.95
2022-08-12T15:16:54.135Z,29.89
2022-08-12T15:20:33.220Z,30.07
2022-08-12T15:22:38.100Z,30.34
2022-08-12T15:24:53.306Z,29.76
2022-08-12T15:27:22.471Z,29.90
2022-08-12T15:29:57.905Z,30.71
2022-08-12T15:32:31.962Z,30.01
2022-08-12T15:35:00.442Z,30.82
2022-08-12T15:38:09.408Z,30.67
2022-08-12T15:40:13.500Z,31.01
2022-08-12T15:42:40.001Z,31.50
2022-08-12T15:45:08.563Z,31.20
2022-08-12T15:47:48.342Z,31.43
2022-08-12T15:50:23.165Z,31.78
2022-08-12T15:52:53.052Z,32.26
2022-08-12T15:55:21.611Z,32.08
2022-08-12T15:57:53.939Z,31.76
2022-08-12T16:00:31.622Z,31.57
2022-08-12T16:02:59.649Z,32.55
2022-08-12T16:06:16.907Z,32.24
2022-08-12T16:08:18.715Z,32.45
2022-08-12T16:10:50.355Z,32.33
2022-08-12T16:13:18.287Z,32.41
2022-08-12T16:16:03.809Z,32.64
2022-08-12T16:18:31.594Z,32.81
2022-08-12T16:20:58.187Z,33.04
2022-08-12T16:23:35.740Z,32.82
2022-08-12T16:26:15.463Z,32.38
2022-08-12T16:28:47.334Z,32.35
2022-08-12T16:31:18.594Z,32.61
2022-08-12T16:33:59.612Z,32.95
2022-08-12T16:36:27.795Z,32.76
2022-08-12T16:38:54.217Z,33.58
2022-08-12T16:41:21.665Z,32.58
2022-08-12T16:43:48.517Z,32.76
2022-08-12T16:46:32.367Z,32.70
2022-08-12T16:49:08.625Z,33.03
2022-08-12T16:51:40.401Z,32.75
2022-08-12T16:54:14.183Z,32.51
2022-08-12T16:56:54.820Z,33.22
2022-08-12T16:59:23.865Z,33.35
2022-08-12T17:01:50.558Z,33.41
2022-08-12T17:04:18.090Z,33.10
2022-08-12T17:06:46.948Z,33.13
2022-08-12T17:09:17.973Z,33.39
2022-08-12T17:11:46.838Z,33.33
2022-08-12T17:14:16.222Z,33.24
2022-08-12T17:16:43.373Z,32.93
2022-08-12T17:19:13.960Z,33.45
2022-08-12T17:22:01.626Z,33.33
2022-08-12T17:24:30.285Z,33.46
2022-08-12T17:26:57.557Z,33.40
2022-08-12T17:30:00.172Z,33.52
2022-08-12T17:32:11.482Z,33.64
2022-08-12T17:34:56.575Z,33.41
2022-08-12T17:37:22.946Z,34.96
2022-08-12T17:40:15.932Z,34.31
2022-08-12T17:42:37.818Z,33.70
2022-08-12T17:45:17.315Z,33.78
2022-08-12T17:47:45.157Z,34.14
2022-08-12T17:50:28.641Z,34.00
2022-08-12T17:52:58.002Z,34.06
2022-08-12T17:55:40.002Z,34.19
2022-08-12T17:58:13.793Z,34.66
2022-08-12T18:00:42.587Z,34.27
2022-08-12T18:03:09.151Z,34.43
2022-08-12T18:05:55.706Z,34.65
2022-08-12T18:08:29.422Z,35.11
2022-08-12T18:12:04.613Z,34.88
2022-08-12T18:14:07.040Z,35.46
2022-08-12T18:16:34.529Z,35.96
2022-08-12T18:19:01.962Z,35.88
2022-08-12T18:21:28.418Z,37.18
2022-08-12T18:24:22.500Z,37.16
2022-08-12T18:26:56.040Z,36.98
2022-08-12T18:29:22.402Z,36.65
2022-08-12T18:32:00.071Z,37.65
2022-08-12T18:34:32.540Z,37.74
2022-08-12T18:36:59.600Z,37.38
2022-08-12T18:39:57.519Z,39.30
2022-08-12T18:42:24.453Z,39.25
2022-08-12T18:44:54.112Z,39.43
2022-08-12T18:47:21.065Z,42.59
2022-08-12T18:49:49.836Z,42.91
2022-08-12T18:52:16.254Z,42.66
2022-08-12T18:54:48.779Z,42.73
2022-08-12T18:57:45.986Z,43.03
2022-08-12T19:00:07.557Z,43.50
2022-08-12T19:02:36.484Z,42.71
2022-08-12T19:05:09.798Z,42.65
2022-08-12T19:07:58.182Z,42.17
2022-08-12T19:10:25.209Z,41.86
2022-08-12T19:13:10.620Z,41.53
2022-08-12T19:15:42.253Z,41.05
2022-08-12T19:18:09.938Z,41.24
2022-08-12T19:20:39.179Z,41.36
2022-08-12T19:23:16.029Z,41.24
2022-08-12T19:25:59.768Z,41.00
2022-08-12T19:28:30.203Z,41.71
2022-08-12T19:31:55.934Z,42.35
2022-08-12T19:34:37.731Z,42.44
2022-08-12T19:37:09.299Z,42.36
2022-08-12T19:40:09.495Z,42.23
2022-08-12T19:42:23.571Z,42.69
2022-08-12T19:44:54.345Z,42.76
2022-08-12T19:47:24.147Z,43.00
2022-08-12T19:49:53.216Z,43.20
2022-08-12T19:52:25.664Z,43.16
2022-08-12T19:54:56.358Z,43.13
2022-08-12T19:57:23.216Z,42.77
2022-08-12T20:00:04.332Z,43.01
2022-08-12T20:02:34.532Z,42.39
2022-08-12T20:06:02.928Z,41.73
2022-08-12T20:07:57.100Z,42.64
2022-08-12T20:10:35.148Z,42.76
2022-08-12T20:13:18.143Z,43.22
2022-08-12T20:15:46.026Z,43.29
2022-08-12T20:18:19.243Z,43.32
2022-08-12T20:21:02.983Z,43.97
2022-08-12T20:23:59.839Z,44.09
2022-08-12T20:26:27.494Z,45.85
2022-08-12T20:28:54.792Z,45.66
2022-08-12T20:31:21.190Z,45.55
2022-08-12T20:33:56.089Z,45.05
2022-08-12T20:36:43.043Z,46.22
2022-08-12T20:39:17.898Z,45.45
2022-08-12T20:41:58.971Z,44.63
2022-08-12T20:44:26.594Z,45.45
2022-08-12T20:46:55.923Z,46.44
2022-08-12T20:49:24.769Z,45.61
2022-08-12T20:51:56.138Z,45.98
2022-08-12T20:54:22.827Z,45.47
2022-08-12T20:57:00.970Z,46.33
2022-08-12T20:59:31.817Z,48.17
2022-08-12T21:01:58.443Z,48.50
2022-08-12T21:04:49.946Z,48.84
2022-08-12T21:07:17.285Z,50.92
2022-08-12T21:09:50.716Z,51.17
2022-08-12T21:12:28.089Z,51.55
2022-08-12T21:15:17.385Z,52.88
2022-08-12T21:18:08.629Z,53.10
2022-08-12T21:20:33.596Z,53.41
2022-08-12T21:23:00.254Z,53.00
2022-08-12T21:25:44.451Z,52.68
2022-08-12T21:28:12.947Z,52.60
2022-08-12T21:31:10.941Z,52.15
2022-08-12T21:33:30.841Z,52.87
2022-08-12T21:35:58.011Z,52.86
2022-08-12T21:38:34.789Z,52.71
2022-08-12T21:41:01.440Z,52.18
2022-08-12T21:43:43.691Z,51.83
2022-08-12T21:46:33.720Z,51.13
2022-08-12T21:49:02.583Z,50.71
2022-08-12T21:51:49.017Z,50.59
2022-08-12T21:54:21.927Z,50.83
2022-08-12T21:56:48.768Z,49.63
2022-08-12T21:59:15.515Z,50.07
2022-08-12T22:01:48.586Z,49.75
2022-08-12T22:04:33.964Z,51.50
2022-08-12T22:07:00.484Z,51.76
2022-08-12T22:09:27.637Z,52.31
2022-08-12T22:11:59.098Z,51.22
2022-08-12T22:14:27.028Z,53.01
2022-08-12T22:16:53.709Z,52.24
2022-08-12T22:19:21.043Z,50.06
2022-08-12T22:21:53.956Z,50.74
2022-08-12T22:24:26.552Z,50.50
2022-08-12T22:27:18.189Z,50.33
2022-08-12T22:30:13.825Z,50.43
2022-08-12T22:32:50.482Z,50.42
2022-08-12T22:35:55.317Z,49.90
2022-08-12T22:38:21.248Z,50.30
2022-08-12T22:40:51.559Z,50.53
2022-08-12T22:43:36.667Z,50.25
2022-08-12T22:46:41.754Z,50.60
2022-08-12T22:49:36.608Z,51.21
2022-08-12T22:52:11.219Z,51.63
2022-08-12T22:55:00.283Z,51.05
2022-08-12T22:57:26.380Z,50.33
2022-08-12T23:00:24.057Z,51.37
2022-08-12T23:03:00.439Z,51.41
2022-08-12T23:05:57.074Z,52.04
2022-08-12T23:08:22.414Z,52.02
2022-08-12T23:10:48.935Z,52.45
2022-08-12T23:13:43.114Z,53.37
2022-08-12T23:16:10.046Z,53.44
2022-08-12T23:18:45.133Z,54.54
2022-08-12T23:21:22.178Z,56.07
2022-08-12T23:23:57.957Z,56.90
2022-08-12T23:26:55.107Z,56.48
2022-08-12T23:29:30.138Z,56.65
2022-08-12T23:32:09.854Z,57.34
2022-08-12T23:34:37.262Z,57.70
2022-08-12T23:37:04.482Z,56.35
2022-08-12T23:40:14.753Z,56.51
2022-08-12T23:42:19.453Z,56.68
2022-08-12T23:44:48.394Z,56.49
2022-08-12T23:47:18.961Z,55.28
2022-08-12T23:49:57.834Z,53.72
2022-08-12T23:52:34.731Z,56.06
2022-08-12T23:55:24.223Z,55.65
2022-08-12T23:57:51.104Z,57.51
